Time;durP1;ratioP1;P1;durP2;ratioP2;P2;SDS_P1;SDS_P2;PMS_P1;PMS_P2;Temp;Humidity;BMP_temperature;BMP_pressure;BME280_temperature;BME280_humidity;BME280_pressure;Samples;Min_cycle;Max_cycle;Signal;HPM_P1;HPM_P2
2023/05/11 00:03:38;;;;;;;1.73;1.00;;;;;;;;;;10400394;28;19940;-75
2023/05/11 00:08:42;;;;;;;0.53;0.40;;;;;;;;;;10397952;28;20132;-76
2023/05/11 00:13:45;;;;;;;2.65;1.00;;;;;;;;;;10392834;28;20315;-77
2023/05/11 00:19:35;;;;;;;;;;;;;;;;;;;;;
2023/05/11 00:25:04;;;;;;;2.07;1.13;;;;;;;;;;10397672;28;20049;-77
2023/05/11 00:30:09;;;;;;;0.70;0.60;;;;;;;;;;10397597;28;20488;-78
2023/05/11 00:35:12;;;;;;;0.52;0.40;;;;;;;;;;10400945;28;20041;-76
2023/05/11 00:40:16;;;;;;;0.65;0.55;;;;;;;;;;10391519;28;20427;-77
2023/05/11 00:45:19;;;;;;;1.48;0.50;;;;;;;;;;10402230;28;20056;-78
2023/05/11 00:50:22;;;;;;;1.15;0.60;;;;;;;;;;10401893;28;20482;-75
2023/05/11 00:55:27;;;;;;;0.65;0.30;;;;;;;;;;10403420;28;20084;-77
2023/05/11 01:00:30;;;;;;;0.82;0.63;;;;;;;;;;10400800;28;20454;-77
2023/05/11 01:05:36;;;;;;;0.52;0.40;;;;;;;;;;10402322;28;20120;-76
2023/05/11 01:10:42;;;;;;;1.92;0.65;;;;;;;;;;10399883;28;20033;-76
2023/05/11 01:15:48;;;;;;;1.95;0.90;;;;;;;;;;10400851;28;20091;-76
2023/05/11 01:20:53;;;;;;;1.65;1.10;;;;;;;;;;10401712;28;20044;-76
2023/05/11 01:26:10;;;;;;;1.08;0.70;;;;;;;;;;10401425;28;20053;-76
2023/05/11 01:31:17;;;;;;;1.70;0.65;;;;;;;;;;10400100;28;20162;-78
2023/05/11 01:36:20;;;;;;;0.20;0.20;;;;;;;;;;10398743;28;20049;-78
2023/05/11 01:41:25;;;;;;;1.35;0.80;;;;;;;;;;10400391;28;20056;-78
2023/05/11 01:46:31;;;;;;;0.75;0.63;;;;;;;;;;10396524;28;20044;-77
2023/05/11 01:51:36;;;;;;;0.90;0.63;;;;;;;;;;10399573;28;20076;-77
2023/05/11 01:56:41;;;;;;;2.70;1.00;;;;;;;;;;10398189;28;20056;-77
2023/05/11 02:01:46;;;;;;;0.75;0.60;;;;;;;;;;10401288;28;20394;-76
2023/05/11 02:06:48;;;;;;;0.90;0.65;;;;;;;;;;10398959;28;20048;-77
2023/05/11 02:11:53;;;;;;;1.30;0.73;;;;;;;;;;10400952;28;20045;-78
2023/05/11 02:16:57;;;;;;;0.63;0.60;;;;;;;;;;10400655;28;20056;-76
2023/05/11 02:22:01;;;;;;;1.67;0.82;;;;;;;;;;10401077;28;20467;-77
2023/05/11 02:27:04;;;;;;;0.30;0.30;;;;;;;;;;10400097;28;20042;-76
2023/05/11 02:32:09;;;;;;;1.73;0.73;;;;;;;;;;10405357;28;20502;-77
2023/05/11 02:37:13;;;;;;;0.68;0.68;;;;;;;;;;10398110;28;20461;-77
2023/05/11 02:42:20;;;;;;;1.00;0.80;;;;;;;;;;10398916;28;20041;-78
2023/05/11 02:47:27;;;;;;;0.70;0.45;;;;;;;;;;10395644;28;20044;-78
2023/05/11 02:52:31;;;;;;;0.45;0.40;;;;;;;;;;10397773;28;20545;-76
2023/05/11 02:57:33;;;;;;;;;;;;;;;;;;10399465;28;20052;-77
2023/05/11 03:02:38;;;;;;;3.47;0.57;;;;;;;;;;10400856;28;19975;-78
2023/05/11 03:07:41;;;;;;;1.25;0.65;;;;;;;;;;10396083;28;20041;-79
2023/05/11 03:12:45;;;;;;;0.75;0.30;;;;;;;;;;10400061;28;20119;-77
2023/05/11 03:17:53;;;;;;;0.40;0.40;;;;;;;;;;10399792;28;20044;-77
2023/05/11 03:22:55;;;;;;;0.75;0.40;;;;;;;;;;10401906;28;20046;-77
2023/05/11 03:27:59;;;;;;;1.23;0.70;;;;;;;;;;10393071;28;20092;-77
2023/05/11 03:33:03;;;;;;;0.30;0.30;;;;;;;;;;10394757;28;20034;-78
2023/05/11 03:38:07;;;;;;;1.48;0.40;;;;;;;;;;10395632;28;20046;-77
2023/05/11 03:43:11;;;;;;;0.80;0.73;;;;;;;;;;10392901;28;20149;-78
2023/05/11 03:48:16;;;;;;;1.50;0.25;;;;;;;;;;10397415;28;20060;-76
2023/05/11 03:53:19;;;;;;;0.30;0.30;;;;;;;;;;10397402;28;20427;-77
2023/05/11 03:58:23;;;;;;;1.33;0.68;;;;;;;;;;10398813;28;20072;-77
2023/05/11 04:03:27;;;;;;;1.38;0.60;;;;;;;;;;10395383;28;20095;-77
2023/05/11 04:08:30;;;;;;;1.58;0.60;;;;;;;;;;10395526;28;20506;-77
2023/05/11 04:13:33;;;;;;;0.70;0.50;;;;;;;;;;10395570;28;20053;-78
2023/05/11 04:18:37;;;;;;;0.75;0.63;;;;;;;;;;10399280;28;20041;-77
2023/05/11 04:23:40;;;;;;;1.17;0.52;;;;;;;;;;10405155;28;20099;-78
2023/05/11 04:28:43;;;;;;;0.98;0.47;;;;;;;;;;10402007;28;22021;-78
2023/05/11 04:33:47;;;;;;;2.33;0.83;;;;;;;;;;10403774;28;20038;-77
2023/05/11 04:38:51;;;;;;;0.85;0.57;;;;;;;;;;10405873;28;20049;-77
2023/05/11 04:43:54;;;;;;;0.35;0.30;;;;;;;;;;10400403;28;20368;-77
2023/05/11 04:48:58;;;;;;;0.70;0.25;;;;;;;;;;10398505;28;20056;-77
2023/05/11 04:54:01;;;;;;;0.85;0.70;;;;;;;;;;10405380;28;20045;-76
2023/05/11 04:59:04;;;;;;;2.53;1.20;;;;;;;;;;10400454;28;20049;-76
2023/05/11 05:04:08;;;;;;;1.30;0.73;;;;;;;;;;10410042;28;20041;-76
2023/05/11 05:09:12;;;;;;;0.60;0.40;;;;;;;;;;10405434;28;20061;-78
2023/05/11 05:14:15;;;;;;;2.75;0.73;;;;;;;;;;10412061;28;20029;-76
2023/05/11 05:19:18;;;;;;;0.70;0.30;;;;;;;;;;10402291;28;20041;-78
2023/05/11 05:24:21;;;;;;;0.68;0.68;;;;;;;;;;10399823;28;20045;-76
2023/05/11 05:29:24;;;;;;;0.45;0.43;;;;;;;;;;10399739;28;20076;-75
2023/05/11 05:34:28;;;;;;;2.50;0.73;;;;;;;;;;10392968;28;20506;-77
2023/05/11 05:39:31;;;;;;;1.48;0.32;;;;;;;;;;10390487;28;20128;-77
2023/05/11 05:44:33;;;;;;;0.20;0.20;;;;;;;;;;10400171;28;20061;-77
2023/05/11 05:49:39;;;;;;;0.82;0.45;;;;;;;;;;10399406;28;20037;-77
2023/05/11 05:54:42;;;;;;;0.35;0.30;;;;;;;;;;10399087;28;20132;-76
2023/05/11 05:59:47;;;;;;;0.30;0.30;;;;;;;;;;10398999;28;20454;-79
2023/05/11 06:04:51;;;;;;;0.60;0.50;;;;;;;;;;10400086;28;20037;-76
2023/05/11 06:09:54;;;;;;;;;;;;;;;;;;10401689;28;20052;-75
2023/05/11 06:14:56;;;;;;;0.60;0.50;;;;;;;;;;10404186;28;20158;-77
2023/05/11 06:20:00;;;;;;;0.00;0.00;;;;;;;;;;10398132;28;20056;-76
2023/05/11 06:25:03;;;;;;;0.30;0.28;;;;;;;;;;10401086;28;20080;-76
2023/05/11 06:30:07;;;;;;;1.70;0.73;;;;;;;;;;10402302;28;20054;-77
2023/05/11 06:35:11;;;;;;;1.35;0.30;;;;;;;;;;10400840;28;20049;-77
2023/05/11 06:40:15;;;;;;;;;;;;;;;;;;10401089;28;20049;-75
2023/05/11 06:45:18;;;;;;;0.40;0.30;;;;;;;;;;10395433;28;20023;-76
2023/05/11 06:50:22;;;;;;;0.70;0.53;;;;;;;;;;10401035;28;20095;-75
2023/05/11 06:55:29;;;;;;;1.17;0.60;;;;;;;;;;10396472;28;20033;-77
2023/05/11 07:00:31;;;;;;;0.52;0.45;;;;;;;;;;10398021;28;20069;-77
2023/05/11 07:05:37;;;;;;;0.95;0.30;;;;;;;;;;10400271;28;20048;-78
2023/05/11 07:10:41;;;;;;;0.95;0.60;;;;;;;;;;10399366;28;20475;-78
2023/05/11 07:15:44;;;;;;;0.70;0.40;;;;;;;;;;10396287;28;20045;-77
2023/05/11 07:20:49;;;;;;;0.68;0.68;;;;;;;;;;10399716;28;20136;-78
2023/05/11 07:25:52;;;;;;;0.73;0.30;;;;;;;;;;10392485;28;20042;-78
2023/05/11 07:30:55;;;;;;;1.87;1.00;;;;;;;;;;10396860;28;20045;-77
2023/05/11 07:35:59;;;;;;;0.80;0.35;;;;;;;;;;10403624;28;20485;-78
2023/05/11 07:41:01;;;;;;;;;;;;;;;;;;10402989;28;20050;-78
2023/05/11 07:46:06;;;;;;;;;;;;;;;;;;10399993;28;19924;-78
2023/05/11 07:51:10;;;;;;;1.17;0.40;;;;;;;;;;10401096;28;19925;-79
2023/05/11 07:56:14;;;;;;;0.10;0.10;;;;;;;;;;10406543;28;20137;-77
2023/05/11 08:01:16;;;;;;;0.85;0.30;;;;;;;;;;10406046;28;20041;-77
2023/05/11 08:06:21;;;;;;;0.87;0.73;;;;;;;;;;10406609;28;20045;-78
2023/05/11 08:11:25;;;;;;;0.47;0.35;;;;;;;;;;10406762;28;20060;-77
2023/05/11 08:16:27;;;;;;;0.25;0.20;;;;;;;;;;10407099;28;20041;-79
2023/05/11 08:21:32;;;;;;;0.97;0.40;;;;;;;;;;10404612;28;20069;-79
2023/05/11 08:26:46;;;;;;;0.73;0.43;;;;;;;;;;10402981;28;20121;-78
2023/05/11 08:31:50;;;;;;;1.25;0.30;;;;;;;;;;10403215;28;20483;-78
2023/05/11 08:36:54;;;;;;;1.05;0.40;;;;;;;;;;10409462;28;20064;-78
2023/05/11 08:41:58;;;;;;;0.55;0.28;;;;;;;;;;10405011;28;20056;-79
2023/05/11 08:47:01;;;;;;;1.45;0.73;;;;;;;;;;10404670;28;20375;-79
2023/05/11 08:52:25;;;;;;;0.63;0.30;;;;;;;;;;10403097;28;20056;-78
2023/05/11 08:57:30;;;;;;;0.10;0.10;;;;;;;;;;10404130;28;20037;-78
2023/05/11 09:02:34;;;;;;;0.43;0.30;;;;;;;;;;10405346;28;20046;-79
2023/05/11 09:07:40;;;;;;;0.32;0.22;;;;;;;;;;10403313;28;20493;-79
2023/05/11 09:12:43;;;;;;;0.20;0.20;;;;;;;;;;10398952;28;20049;-79
2023/05/11 09:17:46;;;;;;;0.57;0.43;;;;;;;;;;10393961;28;20045;-78
2023/05/11 09:22:52;;;;;;;0.40;0.40;;;;;;;;;;10404161;28;20079;-79
2023/05/11 09:27:54;;;;;;;0.20;0.20;;;;;;;;;;10401266;28;20049;-79
2023/05/11 09:32:58;;;;;;;0.10;0.10;;;;;;;;;;10402426;28;20039;-80
2023/05/11 09:38:04;;;;;;;2.60;0.50;;;;;;;;;;10400565;28;20065;-79
2023/05/11 09:43:15;;;;;;;0.17;0.17;;;;;;;;;;10404791;28;20041;-79
2023/05/11 09:48:25;;;;;;;0.30;0.30;;;;;;;;;;10415951;28;20045;-79
2023/05/11 09:53:41;;;;;;;0.43;0.20;;;;;;;;;;10404289;28;20040;-79
2023/05/11 09:58:46;;;;;;;0.40;0.40;;;;;;;;;;10404895;28;20049;-78
2023/05/11 10:03:50;;;;;;;0.80;0.45;;;;;;;;;;10398460;28;20721;-77
2023/05/11 10:08:55;;;;;;;0.80;0.40;;;;;;;;;;10406888;28;20080;-78
2023/05/11 10:13:58;;;;;;;1.70;0.57;;;;;;;;;;10402328;28;20046;-80
2023/05/11 10:19:00;;;;;;;0.85;0.32;;;;;;;;;;10399259;28;20045;-80
2023/05/11 10:24:05;;;;;;;0.55;0.52;;;;;;;;;;10400807;28;20064;-79
2023/05/11 10:29:09;;;;;;;0.20;0.10;;;;;;;;;;10402061;28;20045;-80
2023/05/11 10:34:12;;;;;;;0.57;0.40;;;;;;;;;;10399094;28;20129;-78
2023/05/11 10:39:15;;;;;;;0.20;0.20;;;;;;;;;;10398389;28;20053;-78
2023/05/11 10:44:19;;;;;;;;;;;;;;;;;;10401105;28;20053;-78
2023/05/11 10:49:32;;;;;;;0.28;0.13;;;;;;;;;;10402737;28;19928;-78
2023/05/11 10:54:49;;;;;;;0.20;0.20;;;;;;;;;;10402067;28;20107;-77
2023/05/11 11:00:13;;;;;;;0.10;0.10;;;;;;;;;;10399575;28;20143;-79
2023/05/11 11:05:32;;;;;;;0.30;0.30;;;;;;;;;;10400088;28;20049;-77
2023/05/11 11:10:37;;;;;;;0.17;0.10;;;;;;;;;;10396363;28;20068;-77
2023/05/11 11:16:01;;;;;;;1.00;0.43;;;;;;;;;;10400890;28;20040;-78
2023/05/11 11:21:04;;;;;;;0.57;0.47;;;;;;;;;;10394023;28;20595;-78
2023/05/11 11:26:08;;;;;;;1.02;0.57;;;;;;;;;;10397171;28;20046;-78
2023/05/11 11:31:24;;;;;;;1.55;0.88;;;;;;;;;;10399734;28;20068;-78
2023/05/11 11:36:51;;;;;;;0.20;0.20;;;;;;;;;;10396349;28;20037;-78
2023/05/11 11:42:01;;;;;;;1.35;0.80;;;;;;;;;;10396281;28;20143;-78
2023/05/11 11:47:10;;;;;;;0.47;0.40;;;;;;;;;;10397980;28;20033;-78
2023/05/11 11:52:14;;;;;;;0.40;0.20;;;;;;;;;;10395747;28;20433;-77
2023/05/11 11:57:32;;;;;;;0.50;0.50;;;;;;;;;;10393633;28;20041;-78
2023/05/11 12:02:42;;;;;;;0.82;0.68;;;;;;;;;;10395158;28;20060;-78
2023/05/11 12:07:46;;;;;;;1.33;0.98;;;;;;;;;;10398005;28;20046;-78
2023/05/11 12:12:49;;;;;;;0.32;0.32;;;;;;;;;;10397339;28;20045;-79
2023/05/11 12:17:53;;;;;;;1.50;0.60;;;;;;;;;;10395484;28;20049;-78
2023/05/11 12:22:56;;;;;;;1.42;0.90;;;;;;;;;;10394544;28;20049;-77
2023/05/11 12:28:00;;;;;;;0.68;0.38;;;;;;;;;;10400314;28;20487;-77
2023/05/11 12:33:07;;;;;;;0.30;0.30;;;;;;;;;;10400343;28;20037;-77
2023/05/11 12:38:10;;;;;;;0.28;0.20;;;;;;;;;;10397177;28;20386;-78
2023/05/11 12:43:16;;;;;;;2.42;1.00;;;;;;;;;;10410113;28;20132;-78
2023/05/11 12:48:20;;;;;;;1.05;0.73;;;;;;;;;;10408010;28;20050;-78
2023/05/11 12:53:22;;;;;;;;;;;;;;;;;;10405440;28;20710;-78
2023/05/11 12:58:25;;;;;;;0.90;0.73;;;;;;;;;;10399321;28;20025;-78
2023/05/11 13:03:31;;;;;;;3.50;0.93;;;;;;;;;;10401734;28;20564;-79
2023/05/11 13:08:34;;;;;;;3.20;1.50;;;;;;;;;;10401398;28;20052;-80
2023/05/11 13:13:37;;;;;;;0.10;0.10;;;;;;;;;;10401500;28;20052;-79
2023/05/11 13:18:55;;;;;;;1.23;0.65;;;;;;;;;;10404595;28;20095;-79
2023/05/11 13:23:58;;;;;;;2.25;0.85;;;;;;;;;;10402295;28;20046;-78
2023/05/11 13:29:01;;;;;;;0.30;0.30;;;;;;;;;;10402869;28;20064;-79
2023/05/11 13:34:14;;;;;;;1.48;0.75;;;;;;;;;;10417083;28;20050;-79
2023/05/11 13:39:18;;;;;;;0.68;0.57;;;;;;;;;;10402414;28;20049;-79
2023/05/11 13:44:20;;;;;;;;;;;;;;;;;;10401403;28;20042;-79
2023/05/11 13:49:25;;;;;;;1.38;0.95;;;;;;;;;;10404335;28;19940;-79
2023/05/11 13:54:30;;;;;;;1.25;0.95;;;;;;;;;;10401836;28;20045;-78
2023/05/11 14:05:12;;;;;;;0.88;0.60;;;;;;;;;;10395638;28;20175;-78
2023/05/11 14:10:15;;;;;;;1.98;1.10;;;;;;;;;;10400112;28;20502;-79
2023/05/11 14:15:18;;;;;;;3.50;1.25;;;;;;;;;;10402160;28;20045;-79
2023/05/11 14:20:23;;;;;;;1.90;1.10;;;;;;;;;;10399852;28;20400;-79
2023/05/11 14:25:26;;;;;;;1.23;1.10;;;;;;;;;;10405001;28;20041;-78
2023/05/11 14:30:29;;;;;;;0.45;0.45;;;;;;;;;;10399174;28;20745;-78
2023/05/11 14:35:33;;;;;;;0.90;0.47;;;;;;;;;;10399679;28;20037;-79
2023/05/11 14:40:38;;;;;;;1.88;1.10;;;;;;;;;;10402450;28;20048;-78
2023/05/11 14:45:41;;;;;;;2.17;1.05;;;;;;;;;;10401253;28;20072;-79
2023/05/11 14:50:45;;;;;;;2.05;1.00;;;;;;;;;;10401998;28;20048;-81
2023/05/11 14:55:47;;;;;;;;;;;;;;;;;;10401364;28;20048;-77
2023/05/11 15:00:50;;;;;;;4.55;2.28;;;;;;;;;;10402628;28;19935;-78
2023/05/11 15:05:54;;;;;;;1.63;0.82;;;;;;;;;;10397694;28;20597;-77
2023/05/11 15:10:56;;;;;;;;;;;;;;;;;;10398292;28;20049;-77
2023/05/11 15:15:59;;;;;;;5.32;1.70;;;;;;;;;;10407322;28;19964;-78
2023/05/11 15:21:04;;;;;;;6.63;2.50;;;;;;;;;;10404208;28;20623;-79
2023/05/11 15:26:07;;;;;;;3.92;1.40;;;;;;;;;;10401959;28;20465;-79
2023/05/11 15:36:57;;;;;;;2.63;1.30;;;;;;;;;;10398529;28;20442;-79
2023/05/11 15:42:00;;;;;;;3.22;1.38;;;;;;;;;;10397632;28;20046;-79
2023/05/11 15:47:02;;;;;;;3.65;2.15;;;;;;;;;;10400173;28;20037;-78
2023/05/11 15:52:07;;;;;;;2.72;1.40;;;;;;;;;;10400086;28;20045;-79
2023/05/11 15:57:09;;;;;;;1.73;1.17;;;;;;;;;;10395051;28;20561;-79
2023/05/11 16:02:12;;;;;;;1.73;0.98;;;;;;;;;;10394041;28;20046;-79
2023/05/11 16:07:16;;;;;;;1.45;1.05;;;;;;;;;;10399446;28;20491;-78
2023/05/11 16:12:18;;;;;;;2.30;1.10;;;;;;;;;;10394650;28;20444;-77
2023/05/11 16:17:21;;;;;;;2.42;1.00;;;;;;;;;;10409984;28;20052;-78
2023/05/11 16:22:25;;;;;;;3.05;1.40;;;;;;;;;;10406616;28;20057;-79
2023/05/11 16:27:28;;;;;;;;;;;;;;;;;;10403728;28;20064;-78
2023/05/11 16:32:30;;;;;;;1.75;0.98;;;;;;;;;;10403529;28;20682;-78
2023/05/11 16:37:35;;;;;;;3.70;1.63;;;;;;;;;;10398743;28;20132;-78
2023/05/11 16:42:37;;;;;;;;;;;;;;;;;;10402713;28;20046;-79
2023/05/11 16:47:40;;;;;;;2.17;1.10;;;;;;;;;;10404793;28;19924;-79
2023/05/11 16:52:44;;;;;;;0.82;0.70;;;;;;;;;;10403576;28;20045;-78
2023/05/11 16:57:46;;;;;;;1.25;0.65;;;;;;;;;;10403817;28;20168;-79
2023/05/11 17:02:49;;;;;;;2.20;1.17;;;;;;;;;;10400245;28;20120;-79
2023/05/11 17:07:53;;;;;;;1.48;1.13;;;;;;;;;;10400817;28;21569;-78
2023/05/11 17:12:56;;;;;;;;;;;;;;;;;;10407431;28;20123;-78
2023/05/11 17:17:59;;;;;;;2.00;1.02;;;;;;;;;;10402130;28;20040;-79
2023/05/11 17:23:03;;;;;;;2.42;1.20;;;;;;;;;;10400901;28;20071;-79
2023/05/11 17:28:05;;;;;;;;;;;;;;;;;;10402136;28;20637;-77
2023/05/11 17:33:08;;;;;;;2.25;1.25;;;;;;;;;;10398524;28;19948;-80
2023/05/11 17:38:12;;;;;;;2.63;1.60;;;;;;;;;;10403164;28;20038;-79
2023/05/11 17:43:16;;;;;;;2.78;1.48;;;;;;;;;;10398281;28;20049;-79
2023/05/11 17:48:18;;;;;;;2.43;1.20;;;;;;;;;;10412098;28;20418;-79
2023/05/11 17:53:22;;;;;;;2.25;1.30;;;;;;;;;;10408265;28;20044;-80
2023/05/11 17:58:26;;;;;;;1.63;1.10;;;;;;;;;;10405100;28;20045;-78
2023/05/11 18:03:29;;;;;;;2.03;1.00;;;;;;;;;;10401806;28;20041;-78
2023/05/11 18:08:35;;;;;;;1.67;0.93;;;;;;;;;;10400999;28;20651;-79
2023/05/11 18:13:37;;;;;;;1.80;1.10;;;;;;;;;;10397152;28;20045;-79
2023/05/11 18:18:42;;;;;;;2.17;1.17;;;;;;;;;;10403329;28;20041;-77
2023/05/11 18:23:46;;;;;;;2.83;1.30;;;;;;;;;;10401289;28;20041;-76
2023/05/11 18:28:48;;;;;;;3.40;1.58;;;;;;;;;;10402592;28;20639;-77
2023/05/11 18:33:51;;;;;;;4.63;1.80;;;;;;;;;;10405357;28;20045;-77
2023/05/11 18:38:55;;;;;;;2.53;1.60;;;;;;;;;;10403210;28;21004;-77
2023/05/11 18:43:58;;;;;;;;;;;;;;;;;;10402028;28;20049;-78
2023/05/11 18:49:01;;;;;;;4.88;2.00;;;;;;;;;;10400339;28;19924;-77
2023/05/11 18:54:06;;;;;;;5.85;1.75;;;;;;;;;;10404095;28;20044;-78
2023/05/11 18:59:08;;;;;;;3.72;1.98;;;;;;;;;;10401289;28;20036;-77
2023/05/11 19:04:11;;;;;;;3.38;1.90;;;;;;;;;;10402368;28;20041;-78
2023/05/11 19:09:15;;;;;;;5.30;2.13;;;;;;;;;;10401471;28;20095;-77
2023/05/11 19:14:17;;;;;;;;;;;;;;;;;;10406258;28;20041;-78
2023/05/11 19:19:20;;;;;;;4.18;2.13;;;;;;;;;;10401833;28;19925;-77
2023/05/11 19:24:24;;;;;;;4.32;2.17;;;;;;;;;;10404540;28;20151;-78
2023/05/11 19:29:27;;;;;;;6.63;2.78;;;;;;;;;;10404918;28;20459;-76
2023/05/11 19:34:30;;;;;;;6.18;2.70;;;;;;;;;;10404881;28;20588;-79
2023/05/11 19:39:34;;;;;;;16.55;7.45;;;;;;;;;;10405155;28;20051;-77
2023/05/11 19:44:42;;;;;;;10.02;4.05;;;;;;;;;;10403270;28;20037;-78
2023/05/11 19:49:45;;;;;;;6.00;2.90;;;;;;;;;;10405683;28;20042;-78
2023/05/11 19:54:49;;;;;;;6.17;3.17;;;;;;;;;;10401701;28;20516;-78
2023/05/11 19:59:53;;;;;;;10.85;3.53;;;;;;;;;;10415892;28;20157;-78
2023/05/11 20:04:55;;;;;;;82.13;29.85;;;;;;;;;;10405752;28;20110;-78
2023/05/11 20:10:00;;;;;;;9.10;3.83;;;;;;;;;;10400340;28;20486;-79
2023/05/11 20:15:13;;;;;;;10.70;4.35;;;;;;;;;;10398662;28;20042;-78
2023/05/11 20:20:16;;;;;;;11.23;4.13;;;;;;;;;;10401429;28;20057;-78
2023/05/11 20:25:21;;;;;;;14.40;5.32;;;;;;;;;;10402682;28;20372;-79
2023/05/11 20:30:24;;;;;;;13.05;4.63;;;;;;;;;;10402505;28;20132;-77
2023/05/11 20:35:26;;;;;;;10.15;4.38;;;;;;;;;;10398441;28;20042;-77
2023/05/11 20:40:31;;;;;;;13.73;4.68;;;;;;;;;;10402828;28;20287;-76
2023/05/11 20:45:34;;;;;;;13.63;5.00;;;;;;;;;;10397736;28;20128;-77
2023/05/11 20:50:38;;;;;;;12.07;4.40;;;;;;;;;;10397440;28;20041;-77
2023/05/11 20:55:42;;;;;;;9.68;4.00;;;;;;;;;;10396565;28;20502;-77
2023/05/11 21:00:44;;;;;;;17.27;6.57;;;;;;;;;;10401537;28;20450;-77
2023/05/11 21:05:47;;;;;;;8.82;3.88;;;;;;;;;;10401237;28;20069;-77
2023/05/11 21:10:51;;;;;;;9.55;3.20;;;;;;;;;;10403847;28;20048;-78
2023/05/11 21:15:54;;;;;;;9.05;3.33;;;;;;;;;;10404246;28;20045;-76
2023/05/11 21:20:57;;;;;;;11.15;4.50;;;;;;;;;;10405777;28;20601;-79
2023/05/11 21:26:02;;;;;;;10.07;3.70;;;;;;;;;;10402073;28;20052;-78
2023/05/11 21:31:04;;;;;;;12.70;3.60;;;;;;;;;;10399491;28;20037;-79
2023/05/11 21:36:08;;;;;;;8.35;3.67;;;;;;;;;;10403585;28;20041;-76
2023/05/11 21:41:12;;;;;;;15.68;5.28;;;;;;;;;;10398624;28;20060;-76
2023/05/11 21:46:14;;;;;;;;;;;;;;;;;;10401457;28;20053;-75
2023/05/11 21:51:17;;;;;;;13.02;4.90;;;;;;;;;;10401531;28;20425;-76
2023/05/11 21:56:21;;;;;;;12.23;4.68;;;;;;;;;;10404135;28;20053;-78
2023/05/11 22:01:23;;;;;;;;;;;;;;;;;;10402207;28;20051;-78
2023/05/11 22:06:26;;;;;;;13.90;5.30;;;;;;;;;;10398316;28;20014;-78
2023/05/11 22:11:30;;;;;;;13.15;4.90;;;;;;;;;;10397800;28;20037;-76
2023/05/11 22:16:33;;;;;;;18.92;5.75;;;;;;;;;;10401894;28;20481;-76
2023/05/11 22:21:35;;;;;;;14.52;5.32;;;;;;;;;;10404446;28;20038;-77
2023/05/11 22:26:39;;;;;;;15.35;5.90;;;;;;;;;;10403050;28;20037;-76
2023/05/11 22:31:42;;;;;;;17.50;5.90;;;;;;;;;;10401177;28;20049;-77
2023/05/11 22:36:47;;;;;;;15.65;5.97;;;;;;;;;;10402656;28;20498;-77
2023/05/11 22:41:51;;;;;;;22.48;6.43;;;;;;;;;;10398957;28;20521;-78
2023/05/11 22:46:58;;;;;;;18.42;6.50;;;;;;;;;;10400076;28;20052;-79
2023/05/11 22:52:00;;;;;;;21.75;6.75;;;;;;;;;;10403939;28;20049;-76
2023/05/11 22:57:05;;;;;;;19.58;6.15;;;;;;;;;;10404376;28;20076;-77
2023/05/11 23:02:07;;;;;;;20.83;5.93;;;;;;;;;;10397961;28;20060;-76
2023/05/11 23:07:11;;;;;;;22.75;5.95;;;;;;;;;;10399710;28;20038;-77
2023/05/11 23:12:17;;;;;;;19.70;6.00;;;;;;;;;;10399908;28;20410;-78
2023/05/11 23:17:39;;;;;;;23.17;6.45;;;;;;;;;;10398252;28;20080;-77
2023/05/11 23:22:43;;;;;;;21.88;6.05;;;;;;;;;;10395947;28;20052;-77
2023/05/11 23:27:47;;;;;;;23.00;5.93;;;;;;;;;;10397453;28;20433;-77
2023/05/11 23:32:49;;;;;;;21.30;6.13;;;;;;;;;;10399640;28;20156;-77
2023/05/11 23:37:52;;;;;;;20.05;5.80;;;;;;;;;;10399355;28;20037;-79
2023/05/11 23:42:56;;;;;;;18.42;6.43;;;;;;;;;;10399339;28;20187;-78
2023/05/11 23:47:58;;;;;;;;;;;;;;;;;;10399177;28;20036;-76
2023/05/11 23:53:01;;;;;;;12.50;4.00;;;;;;;;;;10394718;28;19940;-76
2023/05/11 23:58:05;;;;;;;16.67;5.47;;;;;;;;;;10399106;28;20053;-77
